createdAt,value
2023-02-14T00:00:55.005Z,98183.34
2023-02-14T00:05:58.291Z,98181.25
2023-02-14T00:11:01.479Z,98173.28
2023-02-14T00:16:04.904Z,98170.16
2023-02-14T00:21:07.909Z,98178.53
2023-02-14T00:26:17.090Z,98163.38
2023-02-14T00:31:20.945Z,98161.91
2023-02-14T00:36:25.404Z,98157.16
2023-02-14T00:41:28.877Z,98151.91
2023-02-14T00:46:31.983Z,98145.34
2023-02-14T00:51:35.317Z,98138.44
2023-02-14T00:56:38.590Z,98127.81
2023-02-14T01:01:41.687Z,98122.75
2023-02-14T01:06:46.032Z,98119.88
2023-02-14T01:11:49.586Z,98123.56
2023-02-14T01:16:52.845Z,98114.13
2023-02-14T01:21:56.166Z,98100.97
2023-02-14T01:26:59.730Z,98105.09
2023-02-14T01:32:03.102Z,98101.84
2023-02-14T01:37:06.157Z,98095.31
2023-02-14T01:42:11.155Z,98089.78
2023-02-14T01:47:17.394Z,98092.06
2023-02-14T01:52:26.920Z,98086.50
2023-02-14T01:57:40.964Z,98074.31
2023-02-14T02:02:44.620Z,98075.09
2023-02-14T02:07:48.162Z,98072.84
2023-02-14T02:12:53.349Z,98067.72
2023-02-14T02:18:42.651Z,98068.94
2023-02-14T02:23:58.994Z,98068.34
2023-02-14T02:29:32.297Z,98066.25
2023-02-14T02:34:41.186Z,98061.31
2023-02-14T02:40:06.751Z,98066.03
2023-02-14T02:45:24.068Z,98060.13
2023-02-14T02:50:38.060Z,98065.09
2023-02-14T02:56:10.147Z,98069.19
2023-02-14T03:01:17.781Z,98075.53
2023-02-14T03:06:21.119Z,98070.41
2023-02-14T03:11:26.118Z,98078.22
2023-02-14T03:16:44.330Z,98071.63
2023-02-14T03:22:01.022Z,98076.53
2023-02-14T03:27:13.372Z,98075.44
2023-02-14T03:32:35.759Z,98075.00
2023-02-14T03:37:47.095Z,98086.69
2023-02-14T03:42:57.553Z,98083.78
2023-02-14T03:48:07.786Z,98077.00
2023-02-14T03:53:15.232Z,98089.03
2023-02-14T03:58:30.603Z,98094.94
2023-02-14T04:03:39.483Z,98092.47
2023-02-14T04:08:42.681Z,98083.84
2023-02-14T04:13:45.916Z,98090.38
2023-02-14T04:18:48.900Z,98082.59
2023-02-14T04:23:52.039Z,98086.88
2023-02-14T04:28:55.113Z,98089.38
2023-02-14T04:33:58.177Z,98091.03
2023-02-14T04:39:01.404Z,98086.53
2023-02-14T04:44:04.737Z,98092.47
2023-02-14T04:49:08.520Z,98089.81
2023-02-14T04:54:12.014Z,98092.94
2023-02-14T04:59:14.960Z,98089.25
2023-02-14T05:04:18.180Z,98088.22
2023-02-14T05:09:21.756Z,98098.31
2023-02-14T05:14:24.940Z,98098.94
2023-02-14T05:19:28.585Z,98101.84
2023-02-14T05:24:31.750Z,98098.63
2023-02-14T05:29:35.077Z,98106.66
2023-02-14T05:34:38.164Z,98102.00
2023-02-14T05:39:41.222Z,98099.16
2023-02-14T05:44:44.316Z,98108.69
2023-02-14T05:49:47.406Z,98113.06
2023-02-14T05:54:50.844Z,98108.03
2023-02-14T05:59:54.204Z,98093.97
2023-02-14T06:04:57.395Z,98105.41
2023-02-14T06:10:00.624Z,98096.47
2023-02-14T06:15:04.375Z,98104.50
2023-02-14T06:20:08.936Z,98104.34
2023-02-14T06:25:12.118Z,98097.56
2023-02-14T06:30:17.650Z,98093.84
2023-02-14T06:35:20.894Z,98098.59
2023-02-14T06:40:24.083Z,98094.28
2023-02-14T06:45:27.164Z,98088.13
2023-02-14T06:50:30.248Z,98086.03
2023-02-14T06:55:33.341Z,98080.06
2023-02-14T07:00:36.420Z,98084.25
2023-02-14T07:05:39.852Z,98084.19
2023-02-14T07:10:43.457Z,98074.72
2023-02-14T07:15:47.824Z,98066.72
2023-02-14T07:20:51.421Z,98066.50
2023-02-14T07:25:55.950Z,98072.28
2023-02-14T07:31:03.611Z,98062.41
2023-02-14T07:36:08.967Z,98066.69
2023-02-14T07:41:12.242Z,98052.50
2023-02-14T07:46:15.240Z,98054.94
2023-02-14T07:51:18.395Z,98042.97
2023-02-14T07:56:21.417Z,98046.69
2023-02-14T08:01:24.721Z,98041.72
2023-02-14T08:06:27.858Z,98039.66
2023-02-14T08:11:30.974Z,98036.13
2023-02-14T08:16:34.089Z,98015.88
2023-02-14T08:21:37.202Z,98019.50
2023-02-14T08:26:40.320Z,98021.53
2023-02-14T08:31:43.671Z,98008.13
2023-02-14T08:36:46.833Z,98007.63
2023-02-14T08:41:50.126Z,98003.66
2023-02-14T08:46:53.139Z,97997.28
2023-02-14T08:51:56.164Z,97988.75
2023-02-14T08:56:59.276Z,97985.25
2023-02-14T09:02:02.477Z,97979.44
2023-02-14T09:07:05.483Z,97964.75
2023-02-14T09:12:09.842Z,97965.69
2023-02-14T09:17:14.029Z,97960.44
2023-02-14T09:22:19.257Z,97958.09
2023-02-14T09:27:22.464Z,97947.22
2023-02-14T09:32:25.796Z,97936.44
2023-02-14T09:37:28.875Z,97925.59
2023-02-14T09:42:46.037Z,97921.63
2023-02-14T09:48:04.021Z,97921.28
2023-02-14T09:53:16.264Z,97913.56
2023-02-14T09:58:34.497Z,97905.34
2023-02-14T10:03:52.031Z,97889.47
2023-02-14T10:09:10.463Z,97885.50
2023-02-14T10:14:23.468Z,97883.78
2023-02-14T10:19:28.911Z,97856.69
2023-02-14T10:24:49.877Z,97858.38
2023-02-14T10:29:53.520Z,97853.16
2023-02-14T10:35:00.749Z,97855.59
2023-02-14T10:40:22.262Z,97846.63
2023-02-14T10:46:06.732Z,97839.19
2023-02-14T10:51:10.032Z,97835.69
2023-02-14T10:56:22.497Z,97822.84
2023-02-14T11:01:26.125Z,97813.38
2023-02-14T11:06:30.388Z,97808.03
2023-02-14T11:11:33.479Z,97803.72
2023-02-14T11:16:37.993Z,97784.13
2023-02-14T11:21:47.911Z,97782.59
2023-02-14T11:26:51.649Z,97786.69
2023-02-14T11:31:56.035Z,97780.50
2023-02-14T11:37:00.415Z,97778.16
2023-02-14T11:42:05.689Z,97769.75
2023-02-14T11:47:25.913Z,97768.94
2023-02-14T11:52:30.431Z,97763.09
2023-02-14T11:57:38.071Z,97765.78
2023-02-14T12:02:53.349Z,97764.75
2023-02-14T12:08:00.268Z,97762.19
2023-02-14T12:13:10.066Z,97769.91
2023-02-14T12:18:33.636Z,97765.41
2023-02-14T12:23:57.061Z,97773.31
2023-02-14T12:29:25.191Z,97771.13
2023-02-14T12:34:28.813Z,97767.63
2023-02-14T12:39:48.869Z,97761.25
2023-02-14T12:45:03.381Z,97758.03
2023-02-14T12:50:15.822Z,97763.28
2023-02-14T12:55:33.974Z,97770.88
2023-02-14T13:00:40.084Z,97764.34
2023-02-14T13:06:13.778Z,97754.41
2023-02-14T13:11:26.264Z,97752.31
2023-02-14T13:16:53.777Z,97753.94
2023-02-14T13:21:59.771Z,97750.44
2023-02-14T13:27:07.172Z,97755.00
2023-02-14T13:32:15.562Z,97752.56
2023-02-14T13:37:22.762Z,97753.91
2023-02-14T13:42:47.304Z,97752.53
2023-02-14T13:48:21.850Z,97762.06
2023-02-14T13:53:38.780Z,97761.84
2023-02-14T13:59:00.612Z,97768.78
2023-02-14T14:04:39.287Z,97766.88
2023-02-14T14:09:42.504Z,97777.25
2023-02-14T14:15:05.772Z,97772.31
2023-02-14T14:20:22.155Z,97773.88
2023-02-14T14:25:34.080Z,97784.91
2023-02-14T14:30:38.671Z,97784.19
2023-02-14T14:35:56.581Z,97788.19
2023-02-14T14:41:01.277Z,97789.78
2023-02-14T14:46:07.885Z,97782.47
2023-02-14T14:51:34.139Z,97787.38
2023-02-14T14:56:57.453Z,97785.66
2023-02-14T15:02:01.033Z,97790.47
2023-02-14T15:07:27.368Z,97787.69
2023-02-14T15:12:30.836Z,97803.44
2023-02-14T15:17:33.746Z,97799.59
2023-02-14T15:22:44.104Z,97800.91
2023-02-14T15:27:47.801Z,97793.78
2023-02-14T15:32:52.953Z,97807.34
2023-02-14T15:38:00.222Z,97805.31
2023-02-14T15:43:19.296Z,97803.31
2023-02-14T15:48:34.224Z,97817.97
2023-02-14T15:53:45.399Z,97824.78
2023-02-14T15:58:49.225Z,97827.06
2023-02-14T16:03:55.969Z,97832.03
2023-02-14T16:08:59.285Z,97829.56
2023-02-14T16:14:27.321Z,97841.06
2023-02-14T16:19:46.489Z,97846.63
2023-02-14T16:24:49.817Z,97843.38
2023-02-14T16:29:53.448Z,97842.97
2023-02-14T16:34:56.433Z,97849.78
2023-02-14T16:40:02.004Z,97839.50
2023-02-14T16:45:06.634Z,97853.91
2023-02-14T16:50:10.016Z,97846.91
2023-02-14T16:55:18.059Z,97846.09
2023-02-14T17:00:21.559Z,97849.81
2023-02-14T17:05:24.839Z,97848.38
2023-02-14T17:10:29.026Z,97849.63
2023-02-14T17:15:32.677Z,97845.91
2023-02-14T17:20:36.520Z,97839.97
2023-02-14T17:25:40.176Z,97835.25
2023-02-14T17:30:43.102Z,97835.47
2023-02-14T17:35:46.581Z,97837.28
2023-02-14T17:40:49.791Z,97838.16
2023-02-14T17:45:53.030Z,97844.72
2023-02-14T17:50:56.216Z,97846.38
2023-02-14T17:56:06.460Z,97848.03
2023-02-14T18:01:13.282Z,97846.00
2023-02-14T18:06:16.903Z,97846.63
2023-02-14T18:11:21.651Z,97847.03
2023-02-14T18:16:25.408Z,97842.94
2023-02-14T18:21:32.916Z,97832.88
2023-02-14T18:26:37.678Z,97832.50
2023-02-14T18:31:42.902Z,97834.53
2023-02-14T18:36:46.095Z,97842.38
2023-02-14T18:41:49.322Z,97846.50
2023-02-14T18:46:52.505Z,97840.13
2023-02-14T18:51:55.796Z,97843.03
2023-02-14T18:56:58.959Z,97843.41
2023-02-14T19:02:02.302Z,97849.41
2023-02-14T19:07:05.485Z,97842.00
2023-02-14T19:12:10.415Z,97844.06
2023-02-14T19:17:13.616Z,97836.91
2023-02-14T19:22:16.760Z,97838.75
2023-02-14T19:27:20.086Z,97832.78
2023-02-14T19:32:23.188Z,97839.56
2023-02-14T19:37:26.521Z,97841.59
2023-02-14T19:42:30.048Z,97835.06
2023-02-14T19:47:46.218Z,97839.38
2023-02-14T19:52:50.170Z,97839.53
2023-02-14T19:57:53.489Z,97835.25
2023-02-14T20:02:56.622Z,97835.44
2023-02-14T20:07:59.683Z,97836.69
2023-02-14T20:13:03.032Z,97834.38
2023-02-14T20:18:06.307Z,97838.91
2023-02-14T20:23:09.452Z,97842.00
2023-02-14T20:28:12.476Z,97845.88
2023-02-14T20:33:15.672Z,97842.63
2023-02-14T20:38:19.111Z,97836.25
2023-02-14T20:43:24.856Z,97844.47
2023-02-14T20:48:29.067Z,97838.69
2023-02-14T20:53:32.510Z,97840.53
2023-02-14T20:58:37.208Z,97844.25
2023-02-14T21:03:42.166Z,97846.09
2023-02-14T21:08:46.043Z,97840.75
2023-02-14T21:13:49.923Z,97843.63
2023-02-14T21:18:56.727Z,97850.59
2023-02-14T21:24:01.656Z,97865.59
2023-02-14T21:29:06.487Z,97851.81
2023-02-14T21:34:09.639Z,97856.16
2023-02-14T21:39:13.351Z,97855.94
2023-02-14T21:44:16.687Z,97845.88
2023-02-14T21:49:19.901Z,97848.34
2023-02-14T21:54:24.788Z,97844.47
2023-02-14T21:59:28.364Z,97838.69
2023-02-14T22:04:31.507Z,97841.78
2023-02-14T22:09:34.984Z,97842.63
2023-02-14T22:14:37.981Z,97823.13
2023-02-14T22:19:41.169Z,97828.66
2023-02-14T22:24:44.288Z,97831.34
2023-02-14T22:29:47.385Z,97829.66
2023-02-14T22:34:50.576Z,97830.31
2023-02-14T22:39:53.712Z,97821.72
2023-02-14T22:44:56.905Z,97819.00
2023-02-14T22:50:01.597Z,97820.63
2023-02-14T22:55:06.770Z,97825.53
2023-02-14T23:00:10.518Z,97822.69
2023-02-14T23:05:14.162Z,97827.22
2023-02-14T23:10:17.344Z,97818.19
2023-02-14T23:15:20.411Z,97819.59
2023-02-14T23:20:23.890Z,97823.09
2023-02-14T23:25:27.528Z,97824.56
2023-02-14T23:30:30.498Z,97820.03
2023-02-14T23:35:36.315Z,97826.19
2023-02-14T23:40:39.492Z,97818.38
2023-02-14T23:45:42.595Z,97814.72
2023-02-14T23:50:46.088Z,97805.69
2023-02-14T23:55:49.362Z,97807.34
